createdAt,value
2023-02-09T00:01:52.851Z,103065.44
2023-02-09T00:04:26.349Z,103065.44
2023-02-09T00:06:53.889Z,103068.94
2023-02-09T00:09:27.304Z,103067.16
2023-02-09T00:12:19.363Z,103067.19
2023-02-09T00:14:52.345Z,103071.59
2023-02-09T00:17:25.334Z,103081.22
2023-02-09T00:19:54.637Z,103069.81
2023-02-09T00:22:28.363Z,103065.44
2023-02-09T00:24:57.099Z,103064.56
2023-02-09T00:27:30.281Z,103068.91
2023-02-09T00:29:56.884Z,103066.28
2023-02-09T00:32:30.281Z,103068.06
2023-02-09T00:34:56.854Z,103076.81
2023-02-09T00:37:30.319Z,103067.19
2023-02-09T00:40:03.416Z,103071.56
2023-02-09T00:42:36.309Z,103075.06
2023-02-09T00:45:09.318Z,103080.28
2023-02-09T00:47:42.316Z,103067.19
2023-02-09T00:50:09.345Z,103070.69
2023-02-09T00:52:42.292Z,103066.34
2023-02-09T00:55:16.310Z,103067.25
2023-02-09T00:57:42.843Z,103064.63
2023-02-09T01:00:17.299Z,103060.25
2023-02-09T01:02:43.841Z,103061.16
2023-02-09T01:05:17.365Z,103060.25
2023-02-09T01:07:43.943Z,103054.16
2023-02-09T01:10:17.340Z,103057.66
2023-02-09T01:12:44.163Z,103055.94
2023-02-09T01:15:18.316Z,103058.56
2023-02-09T01:17:44.853Z,103061.19
2023-02-09T01:20:13.535Z,103057.69
2023-02-09T01:22:47.277Z,103067.34
2023-02-09T01:25:13.788Z,103070.00
2023-02-09T01:27:48.309Z,103067.41
2023-02-09T01:30:15.774Z,103072.66
2023-02-09T01:32:49.334Z,103079.66
2023-02-09T01:35:15.901Z,103077.06
2023-02-09T01:37:55.309Z,103074.47
2023-02-09T01:40:28.438Z,103068.34
2023-02-09T01:43:01.346Z,103068.34
2023-02-09T01:45:45.580Z,103071.81
2023-02-09T01:48:20.289Z,103070.06
2023-02-09T01:50:51.748Z,103068.34
2023-02-09T01:53:26.400Z,103065.75
2023-02-09T01:56:09.316Z,103058.75
2023-02-09T01:58:36.013Z,103064.91
2023-02-09T02:01:09.330Z,103059.66
2023-02-09T02:03:35.909Z,103055.31
2023-02-09T02:06:15.298Z,103050.09
2023-02-09T02:08:48.791Z,103049.22
2023-02-09T02:11:23.350Z,103050.09
2023-02-09T02:13:50.677Z,103033.50
2023-02-09T02:16:26.390Z,103038.75
2023-02-09T02:19:28.373Z,103037.00
2023-02-09T02:22:23.358Z,103038.75
2023-02-09T02:25:11.364Z,103030.00
2023-02-09T02:27:53.397Z,103030.91
2023-02-09T02:30:43.531Z,103024.81
2023-02-09T02:33:43.357Z,103022.19
2023-02-09T02:36:46.317Z,103013.44
2023-02-09T02:39:49.340Z,103016.91
2023-02-09T02:42:52.127Z,103017.81
2023-02-09T02:45:45.325Z,103015.19
2023-02-09T02:48:24.617Z,103014.34
2023-02-09T02:51:10.380Z,103000.38
2023-02-09T02:53:41.612Z,103001.25
2023-02-09T02:56:21.334Z,103007.31
2023-02-09T02:58:50.303Z,103002.13
2023-02-09T03:01:30.392Z,103007.34
2023-02-09T03:04:05.341Z,102996.88
2023-02-09T03:06:33.464Z,102995.13
2023-02-09T03:09:06.398Z,103002.09
2023-02-09T03:11:51.388Z,102996.00
2023-02-09T03:14:35.384Z,102982.88
2023-02-09T03:17:07.949Z,102982.91
2023-02-09T03:19:53.405Z,102982.03
2023-02-09T03:22:37.390Z,102980.25
2023-02-09T03:25:22.347Z,102978.50
2023-02-09T03:27:58.862Z,102982.03
2023-02-09T03:30:33.439Z,102987.25
2023-02-09T03:33:13.412Z,102977.66
2023-02-09T03:35:48.414Z,102966.31
2023-02-09T03:38:28.384Z,102961.94
2023-02-09T03:41:01.693Z,102954.09
2023-02-09T03:43:54.406Z,102954.13
2023-02-09T03:46:27.347Z,102961.94
2023-02-09T03:49:00.382Z,102956.72
2023-02-09T03:51:26.970Z,102961.09
2023-02-09T03:54:00.342Z,102956.69
2023-02-09T03:56:26.926Z,102952.34
2023-02-09T03:59:00.380Z,102953.22
2023-02-09T04:01:26.923Z,102959.34
2023-02-09T04:04:00.386Z,102966.31
2023-02-09T04:06:27.357Z,102965.44
2023-02-09T04:08:53.923Z,102967.19
2023-02-09T04:11:27.368Z,102967.22
2023-02-09T04:13:54.026Z,102964.56
2023-02-09T04:16:28.517Z,102953.22
2023-02-09T04:18:55.168Z,102948.88
2023-02-09T04:21:28.447Z,102948.88
2023-02-09T04:24:01.362Z,102947.97
2023-02-09T04:26:34.428Z,102934.03
2023-02-09T04:29:01.170Z,102932.28
2023-02-09T04:31:34.434Z,102924.41
2023-02-09T04:34:07.474Z,102927.91
2023-02-09T04:36:40.565Z,102931.41
2023-02-09T04:39:20.374Z,102936.63
2023-02-09T04:41:46.938Z,102936.63
2023-02-09T04:44:20.355Z,102936.63
2023-02-09T04:46:46.894Z,102927.94
2023-02-09T04:49:20.378Z,102927.06
2023-02-09T04:51:46.957Z,102918.34
2023-02-09T04:54:20.373Z,102914.84
2023-02-09T04:56:46.861Z,102922.72
2023-02-09T04:59:38.381Z,102923.56
2023-02-09T05:02:05.173Z,102919.19
2023-02-09T05:04:38.366Z,102924.44
2023-02-09T05:07:04.876Z,102916.56
2023-02-09T05:09:38.384Z,102915.72
2023-02-09T05:12:05.183Z,102924.44
2023-02-09T05:14:31.698Z,102919.19
2023-02-09T05:17:04.403Z,102927.94
2023-02-09T05:19:31.006Z,102935.78
2023-02-09T05:22:04.410Z,102949.75
2023-02-09T05:24:31.045Z,102941.88
2023-02-09T05:27:04.441Z,102949.75
2023-02-09T05:29:31.072Z,102954.97
2023-02-09T05:32:04.562Z,102958.47
2023-02-09T05:34:37.413Z,102952.34
2023-02-09T05:37:17.404Z,102948.00
2023-02-09T05:39:51.217Z,102947.13
2023-02-09T05:42:24.388Z,102956.72
2023-02-09T05:44:58.395Z,102959.34
2023-02-09T05:47:32.379Z,102968.06
2023-02-09T05:50:05.445Z,102967.19
2023-02-09T05:52:32.133Z,102977.66
2023-02-09T05:55:05.395Z,102984.63
2023-02-09T05:57:31.878Z,102975.91
2023-02-09T06:00:04.427Z,102984.59
2023-02-09T06:02:31.010Z,102990.72
2023-02-09T06:05:04.432Z,102983.72
2023-02-09T06:07:31.009Z,102991.59
2023-02-09T06:09:57.517Z,102988.97
2023-02-09T06:12:31.399Z,102984.63
2023-02-09T06:14:57.962Z,102981.13
2023-02-09T06:17:31.422Z,102972.41
2023-02-09T06:19:58.011Z,102948.81
2023-02-09T06:22:31.441Z,102952.31
2023-02-09T06:24:58.056Z,102959.31
2023-02-09T06:27:31.393Z,102969.78
2023-02-09T06:29:57.890Z,102955.81
2023-02-09T06:32:30.443Z,102949.72
2023-02-09T06:34:57.014Z,102962.81
2023-02-09T06:37:37.469Z,102961.91
2023-02-09T06:40:11.140Z,102968.00
2023-02-09T06:42:53.536Z,102981.09
2023-02-09T06:45:20.101Z,102991.56
2023-02-09T06:47:53.419Z,102982.84
2023-02-09T06:50:27.424Z,102994.19
2023-02-09T06:52:54.043Z,102993.34
2023-02-09T06:55:27.450Z,103002.06
2023-02-09T06:58:01.456Z,103009.03
2023-02-09T07:00:34.430Z,102999.41
2023-02-09T07:03:00.989Z,103009.88
2023-02-09T07:05:34.467Z,103009.88
2023-02-09T07:08:01.050Z,103015.13
2023-02-09T07:10:34.397Z,103020.34
2023-02-09T07:13:00.963Z,103025.56
2023-02-09T07:15:34.526Z,103024.69
2023-02-09T07:18:01.150Z,103028.19
2023-02-09T07:20:34.439Z,103033.44
2023-02-09T07:23:01.587Z,103046.50
2023-02-09T07:25:34.437Z,103029.03
2023-02-09T07:28:07.473Z,103037.78
2023-02-09T07:30:34.136Z,103042.16
2023-02-09T07:33:07.418Z,103036.03
2023-02-09T07:35:34.317Z,103035.19
2023-02-09T07:38:14.443Z,103033.44
2023-02-09T07:40:54.472Z,103032.56
2023-02-09T07:43:27.438Z,103035.19
2023-02-09T07:46:06.499Z,103027.34
2023-02-09T07:48:34.790Z,103025.59
2023-02-09T07:51:08.443Z,103035.22
2023-02-09T07:53:41.419Z,103034.34
2023-02-09T07:56:14.460Z,103022.13
2023-02-09T07:58:40.971Z,103028.25
2023-02-09T08:01:17.496Z,103032.63
2023-02-09T08:03:53.443Z,103030.00
2023-02-09T08:06:41.942Z,103037.00
2023-02-09T08:09:16.416Z,103042.22
2023-02-09T08:11:55.640Z,103037.00
2023-02-09T08:14:33.482Z,103026.53
2023-02-09T08:17:34.431Z,103028.31
2023-02-09T08:20:07.122Z,103021.31
2023-02-09T08:22:44.477Z,103027.44
2023-02-09T08:25:11.882Z,103020.44
2023-02-09T08:27:46.456Z,103017.84
2023-02-09T08:30:15.334Z,103018.72
2023-02-09T08:32:42.077Z,103016.97
2023-02-09T08:35:16.501Z,103000.38
2023-02-09T08:37:49.563Z,103005.59
2023-02-09T08:40:29.496Z,103001.22
2023-02-09T08:43:02.490Z,103009.94
2023-02-09T08:45:29.200Z,103008.19
2023-02-09T08:48:02.469Z,103005.56
2023-02-09T08:50:35.442Z,103007.28
2023-02-09T08:53:11.564Z,103000.25
2023-02-09T08:55:39.267Z,102995.88
2023-02-09T08:58:07.710Z,102991.50
2023-02-09T09:00:40.528Z,102984.47
2023-02-09T09:03:07.182Z,102980.97
2023-02-09T09:05:41.449Z,102987.06
2023-02-09T09:08:10.234Z,102985.28
2023-02-09T09:10:43.450Z,102984.38
2023-02-09T09:13:10.017Z,102991.38
2023-02-09T09:15:43.807Z,102987.75
2023-02-09T09:18:10.545Z,102963.19
2023-02-09T09:20:47.534Z,102967.50
2023-02-09T09:23:20.554Z,102975.31
2023-02-09T09:25:47.385Z,102983.16
2023-02-09T09:28:20.571Z,102966.47
2023-02-09T09:31:12.502Z,102956.81
2023-02-09T09:33:46.219Z,102972.47
2023-02-09T09:36:21.506Z,102975.84
2023-02-09T09:38:56.484Z,102965.06
2023-02-09T09:41:38.474Z,102979.84
2023-02-09T09:44:38.514Z,102977.06
2023-02-09T09:47:12.345Z,102974.28
2023-02-09T09:49:46.532Z,102992.53
2023-02-09T09:52:30.498Z,103007.16
2023-02-09T09:55:05.482Z,103003.44
2023-02-09T09:57:32.952Z,102999.81
2023-02-09T10:00:09.551Z,103006.78
2023-02-09T10:02:36.863Z,103007.81
2023-02-09T10:05:28.486Z,103015.72
2023-02-09T10:08:05.087Z,103014.84
2023-02-09T10:10:51.524Z,103023.69
2023-02-09T10:13:24.860Z,103017.50
2023-02-09T10:16:01.490Z,103027.94
2023-02-09T10:18:30.201Z,103037.53
2023-02-09T10:21:13.520Z,103048.78
2023-02-09T10:23:41.746Z,103040.00
2023-02-09T10:26:14.552Z,103025.88
2023-02-09T10:28:44.668Z,103008.28
2023-02-09T10:31:42.925Z,103016.84
2023-02-09T10:34:18.318Z,103009.59
2023-02-09T10:37:20.575Z,103004.28
2023-02-09T10:40:07.514Z,103005.97
2023-02-09T10:42:46.520Z,103007.50
2023-02-09T10:45:20.773Z,103005.53
2023-02-09T10:48:25.504Z,103013.16
2023-02-09T10:50:53.868Z,103016.31
2023-02-09T10:53:39.534Z,103018.69
2023-02-09T10:56:28.514Z,103023.66
2023-02-09T10:59:22.523Z,103021.44
2023-02-09T11:01:58.462Z,103012.44
2023-02-09T11:04:36.729Z,103019.47
2023-02-09T11:07:12.242Z,103027.31
2023-02-09T11:09:53.567Z,103014.91
2023-02-09T11:12:29.521Z,103024.47
2023-02-09T11:14:56.205Z,103023.44
2023-02-09T11:17:46.538Z,103018.38
2023-02-09T11:20:38.512Z,103017.81
2023-02-09T11:23:20.815Z,103024.56
2023-02-09T11:26:29.586Z,103027.88
2023-02-09T11:29:02.234Z,103032.94
2023-02-09T11:31:59.632Z,103024.84
2023-02-09T11:34:29.356Z,103022.13
2023-02-09T11:37:14.567Z,103019.44
2023-02-09T11:39:57.700Z,103031.00
2023-02-09T11:42:53.539Z,103024.19
2023-02-09T11:45:20.160Z,103033.81
2023-02-09T11:48:09.547Z,103046.91
2023-02-09T11:51:13.911Z,103022.84
2023-02-09T11:54:12.612Z,103042.94
2023-02-09T11:56:42.811Z,103022.72
2023-02-09T11:59:28.593Z,103027.97
2023-02-09T12:02:27.791Z,103024.56
2023-02-09T12:05:09.598Z,103023.97
2023-02-09T12:07:57.952Z,103019.00
2023-02-09T12:10:46.819Z,103018.38
2023-02-09T12:13:35.540Z,103025.81
2023-02-09T12:16:21.578Z,103013.00
2023-02-09T12:18:48.764Z,103002.72
2023-02-09T12:21:34.614Z,103014.13
2023-02-09T12:24:02.028Z,103007.09
2023-02-09T12:26:47.522Z,103000.94
2023-02-09T12:29:32.880Z,103000.91
2023-02-09T12:32:12.650Z,102994.91
2023-02-09T12:34:46.700Z,102996.84
2023-02-09T12:37:19.644Z,103000.44
2023-02-09T12:40:10.184Z,103001.25
2023-02-09T12:42:56.569Z,103003.75
2023-02-09T12:45:38.415Z,102996.56
2023-02-09T12:48:14.551Z,103001.69
2023-02-09T12:50:44.118Z,102996.44
2023-02-09T12:53:29.530Z,102996.47
2023-02-09T12:56:04.035Z,102992.09
2023-02-09T12:58:41.635Z,102993.81
2023-02-09T13:01:08.480Z,102987.66
2023-02-09T13:03:50.646Z,102993.84
2023-02-09T13:06:29.918Z,102993.00
2023-02-09T13:09:08.597Z,102985.16
2023-02-09T13:11:46.488Z,102983.44
2023-02-09T13:14:22.585Z,102979.00
2023-02-09T13:17:19.886Z,102972.78
2023-02-09T13:20:03.703Z,102956.94
2023-02-09T13:22:33.286Z,102967.50
2023-02-09T13:25:36.562Z,102967.44
2023-02-09T13:28:22.637Z,102970.00
2023-02-09T13:30:55.642Z,102977.75
2023-02-09T13:33:43.600Z,102975.84
2023-02-09T13:36:46.630Z,102975.72
2023-02-09T13:39:29.704Z,102977.34
2023-02-09T13:42:02.677Z,102973.69
2023-02-09T13:44:32.093Z,102978.22
2023-02-09T13:47:13.585Z,102980.88
2023-02-09T13:49:40.306Z,102978.22
2023-02-09T13:52:17.596Z,102995.69
2023-02-09T13:54:44.373Z,102989.47
2023-02-09T13:57:40.593Z,103010.53
2023-02-09T14:00:10.078Z,103006.44
2023-02-09T14:02:44.632Z,103008.19
2023-02-09T14:05:11.625Z,103007.44
2023-02-09T14:07:45.685Z,102997.84
2023-02-09T14:10:17.353Z,103004.97
2023-02-09T14:13:07.651Z,103004.31
2023-02-09T14:15:59.874Z,103009.59
2023-02-09T14:18:32.666Z,102995.50
2023-02-09T14:21:19.523Z,103008.78
2023-02-09T14:23:55.561Z,103011.47
2023-02-09T14:26:36.340Z,102994.00
2023-02-09T14:29:24.687Z,103008.13
2023-02-09T14:32:10.596Z,103002.97
2023-02-09T14:34:45.571Z,103000.34
2023-02-09T14:37:18.683Z,103001.31
2023-02-09T14:40:21.714Z,103002.22
2023-02-09T14:43:13.666Z,103008.34
2023-02-09T14:45:52.661Z,103004.84
2023-02-09T14:48:23.579Z,103002.31
2023-02-09T14:51:00.601Z,102998.84
2023-02-09T14:53:31.117Z,103005.81
2023-02-09T14:56:06.133Z,102993.56
2023-02-09T14:58:34.041Z,102989.97
2023-02-09T15:01:08.710Z,102995.28
2023-02-09T15:03:35.369Z,103004.06
2023-02-09T15:06:10.670Z,103004.97
2023-02-09T15:08:38.999Z,102996.19
2023-02-09T15:11:34.663Z,103000.59
2023-02-09T15:14:04.234Z,103000.66
2023-02-09T15:16:37.648Z,103001.53
2023-02-09T15:19:16.710Z,103014.78
2023-02-09T15:21:43.289Z,103015.69
2023-02-09T15:24:16.638Z,103015.69
2023-02-09T15:26:49.626Z,103020.13
2023-02-09T15:29:22.667Z,103020.13
2023-02-09T15:31:49.218Z,103026.25
2023-02-09T15:34:22.677Z,103029.84
2023-02-09T15:36:55.665Z,103035.97
2023-02-09T15:39:37.644Z,103032.50
2023-02-09T15:42:37.669Z,103036.94
2023-02-09T15:45:47.642Z,103029.03
2023-02-09T15:48:15.012Z,103035.22
2023-02-09T15:50:50.667Z,103046.69
2023-02-09T15:53:25.687Z,103050.16
2023-02-09T15:56:00.698Z,103054.59
2023-02-09T15:58:37.748Z,103053.72
2023-02-09T16:01:11.648Z,103047.63
2023-02-09T16:03:38.236Z,103055.56
2023-02-09T16:06:20.712Z,103052.06
2023-02-09T16:08:48.550Z,103058.16
2023-02-09T16:11:44.169Z,103047.66
2023-02-09T16:39:28.794Z,103089.97
2023-02-09T16:42:04.451Z,103083.00
2023-02-09T16:44:39.720Z,103092.59
2023-02-09T16:47:21.638Z,103097.84
2023-02-09T16:50:09.811Z,103101.38
2023-02-09T16:52:36.557Z,103100.56
2023-02-09T16:55:17.137Z,103106.66
2023-02-09T16:57:50.835Z,103098.81
2023-02-09T17:00:24.740Z,103103.16
2023-02-09T17:02:55.674Z,103104.53
2023-02-09T17:05:33.735Z,103100.28
2023-02-09T17:08:26.846Z,103087.50
2023-02-09T17:11:11.462Z,103102.72
2023-02-09T17:13:47.399Z,103106.06
2023-02-09T17:16:20.206Z,103111.63
2023-02-09T17:18:56.710Z,103126.59
2023-02-09T17:21:41.795Z,103124.00
2023-02-09T17:24:15.070Z,103126.00
2023-02-09T17:26:50.614Z,103108.19
2023-02-09T17:29:20.326Z,103133.47
2023-02-09T17:32:02.939Z,103135.19
2023-02-09T17:34:29.717Z,103139.78
2023-02-09T17:37:04.878Z,103139.44
2023-02-09T17:39:44.702Z,103130.06
2023-02-09T17:42:22.689Z,103137.81
2023-02-09T17:44:57.829Z,103131.69
2023-02-09T17:47:24.833Z,103129.47
2023-02-09T17:49:57.809Z,103142.84
2023-02-09T17:52:24.574Z,103123.44
2023-02-09T17:54:57.805Z,103127.38
2023-02-09T17:57:27.741Z,103137.34
2023-02-09T18:00:00.822Z,103135.84
2023-02-09T18:02:27.517Z,103120.78
2023-02-09T18:04:54.245Z,103144.16
2023-02-09T18:07:33.232Z,103120.06
2023-02-09T18:09:59.999Z,103154.09
2023-02-09T18:12:33.774Z,103139.06
2023-02-09T18:15:00.435Z,103144.22
2023-02-09T18:17:43.887Z,103145.47
2023-02-09T18:20:29.984Z,103141.00
2023-02-09T18:23:11.686Z,103143.66
2023-02-09T18:26:03.447Z,103144.94
2023-02-09T18:28:36.846Z,103153.75
2023-02-09T18:31:22.480Z,103162.06
2023-02-09T18:33:55.764Z,103145.00
2023-02-09T18:36:28.028Z,103164.00
2023-02-09T18:39:03.078Z,103161.94
2023-02-09T18:41:38.295Z,103177.28
2023-02-09T18:44:12.820Z,103168.97
2023-02-09T18:46:39.593Z,103167.28
2023-02-09T18:49:21.879Z,103160.75
2023-02-09T18:51:54.876Z,103175.75
2023-02-09T18:54:21.701Z,103183.69
2023-02-09T18:56:54.748Z,103174.41
2023-02-09T18:59:21.353Z,103172.84
2023-02-09T19:01:54.903Z,103167.63
2023-02-09T19:04:21.554Z,103176.44
2023-02-09T19:07:11.592Z,103183.06
2023-02-09T19:09:40.850Z,103177.31
2023-02-09T19:12:16.896Z,103172.63
2023-02-09T19:14:46.112Z,103188.53
2023-02-09T19:17:24.852Z,103187.88
2023-02-09T19:19:51.523Z,103198.00
2023-02-09T19:22:27.846Z,103205.31
2023-02-09T19:24:56.517Z,103198.09
2023-02-09T19:27:24.529Z,103207.75
2023-02-09T19:30:02.792Z,103215.81
2023-02-09T19:32:41.556Z,103214.34
2023-02-09T19:35:22.306Z,103198.44
2023-02-09T19:38:03.784Z,103201.88
2023-02-09T19:40:40.846Z,103217.84
2023-02-09T19:43:13.832Z,103221.28
2023-02-09T19:45:40.594Z,103227.00
2023-02-09T19:48:37.361Z,103223.38
2023-02-09T19:51:02.112Z,103222.56
2023-02-09T19:53:34.916Z,103233.66
2023-02-09T19:56:08.732Z,103243.72
2023-02-09T19:58:43.921Z,103245.31
2023-02-09T20:01:20.681Z,103245.78
2023-02-09T20:03:56.793Z,103251.00
2023-02-09T20:06:32.980Z,103235.16
2023-02-09T20:09:00.378Z,103255.44
2023-02-09T20:14:14.276Z,103246.16
2023-02-09T20:16:48.783Z,103237.19
2023-02-09T20:19:15.567Z,103248.00
2023-02-09T20:21:56.848Z,103246.44
2023-02-09T20:24:24.296Z,103226.31
2023-02-09T20:27:07.243Z,103239.91
2023-02-09T20:29:37.383Z,103259.88
2023-02-09T20:32:11.824Z,103244.44
2023-02-09T20:34:46.105Z,103258.34
2023-02-09T20:37:24.313Z,103252.44
2023-02-09T20:39:57.814Z,103252.78
2023-02-09T20:42:49.047Z,103260.13
2023-02-09T20:45:43.901Z,103254.69
2023-02-09T20:48:10.984Z,103257.19
2023-02-09T20:50:48.183Z,103252.75
2023-02-09T20:53:15.225Z,103258.78
2023-02-09T20:55:49.857Z,103253.88
2023-02-09T20:58:17.586Z,103264.69
2023-02-09T21:00:51.300Z,103268.06
2023-02-09T21:03:18.446Z,103271.78
2023-02-09T21:05:51.827Z,103268.97
2023-02-09T21:08:18.493Z,103269.28
2023-02-09T21:10:54.389Z,103270.06
2023-02-09T21:13:21.167Z,103269.09
2023-02-09T21:15:54.785Z,103273.59
2023-02-09T21:18:28.906Z,103270.25
2023-02-09T21:21:01.842Z,103275.75
2023-02-09T21:23:43.869Z,103261.91
2023-02-09T21:26:32.845Z,103256.31
2023-02-09T21:29:08.710Z,103247.38
2023-02-09T21:31:47.866Z,103250.44
2023-02-09T21:34:16.646Z,103266.81
2023-02-09T21:36:49.965Z,103261.44
2023-02-09T21:39:31.982Z,103244.56
2023-02-09T21:42:17.382Z,103263.59
2023-02-09T21:44:50.879Z,103247.16
2023-02-09T21:47:26.433Z,103255.44
2023-02-09T21:52:45.315Z,103244.75
2023-02-09T21:55:19.828Z,103252.91
2023-02-09T21:57:46.772Z,103260.41
2023-02-09T22:00:20.850Z,103265.53
2023-02-09T22:02:54.702Z,103260.59
2023-02-09T22:05:33.727Z,103231.09
2023-02-09T22:08:09.882Z,103275.06
2023-02-09T22:10:42.884Z,103276.28
2023-02-09T22:13:15.828Z,103262.94
2023-02-09T22:15:43.630Z,103289.00
2023-02-09T22:18:17.892Z,103281.19
2023-02-09T22:20:51.347Z,103273.91
2023-02-09T22:23:25.845Z,103281.34
2023-02-09T22:26:08.861Z,103271.09
2023-02-09T22:28:48.903Z,103289.66
2023-02-09T22:31:18.659Z,103253.97
2023-02-09T22:33:51.875Z,103274.09
2023-02-09T22:39:10.887Z,103283.09
2023-02-09T22:41:54.978Z,103277.88
2023-02-09T22:44:28.929Z,103277.16
2023-02-09T22:46:58.776Z,103288.63
2023-02-09T22:49:31.918Z,103293.03
2023-02-09T22:51:58.558Z,103298.34
2023-02-09T22:54:31.986Z,103306.28
2023-02-09T22:56:58.702Z,103282.75
2023-02-09T22:59:31.582Z,103274.09
2023-02-09T23:02:13.690Z,103287.22
2023-02-09T23:04:40.493Z,103307.38
2023-02-09T23:07:13.947Z,103324.91
2023-02-09T23:09:40.762Z,103314.41
2023-02-09T23:12:09.758Z,103307.47
2023-02-09T23:14:42.889Z,103303.13
2023-02-09T23:17:15.878Z,103314.50
2023-02-09T23:19:42.500Z,103306.66
2023-02-09T23:22:15.831Z,103314.56
2023-02-09T23:25:15.067Z,103317.22
2023-02-09T23:27:41.692Z,103319.00
2023-02-09T23:30:17.387Z,103326.88
2023-02-09T23:32:53.928Z,103321.66
2023-02-09T23:35:21.755Z,103329.59
2023-02-09T23:37:55.903Z,103327.88
2023-02-09T23:40:28.978Z,103330.50
2023-02-09T23:42:55.680Z,103338.44
2023-02-09T23:45:28.980Z,103335.78
2023-02-09T23:47:55.723Z,103338.44
2023-02-09T23:50:28.841Z,103333.19
2023-02-09T23:52:55.567Z,103328.78
2023-02-09T23:55:28.890Z,103331.44
2023-02-09T23:58:04.721Z,103324.47
